sensor_id;sensor_type;location;lat;lon;timestamp;P1;durP1;ratioP1;P2;durP2;ratioP2
25129;SDS011;13308;50.860;13.664;2023-08-24T05:19:43;10.43;;;9.25;;
25129;SDS011;13308;50.860;13.664;2023-08-24T05:22:09;10.07;;;9.00;;
25129;SDS011;13308;50.860;13.664;2023-08-24T05:24:34;9.98;;;8.80;;
25129;SDS011;13308;50.860;13.664;2023-08-24T05:26:59;8.88;;;8.02;;
25129;SDS011;13308;50.860;13.664;2023-08-24T05:29:25;8.25;;;7.55;;
25129;SDS011;13308;50.860;13.664;2023-08-24T05:31:50;7.97;;;7.18;;
25129;SDS011;13308;50.860;13.664;2023-08-24T05:34:15;8.55;;;7.85;;
25129;SDS011;13308;50.860;13.664;2023-08-24T05:36:41;8.27;;;7.10;;
25129;SDS011;13308;50.860;13.664;2023-08-24T05:39:06;8.35;;;7.55;;
25129;SDS011;13308;50.860;13.664;2023-08-24T05:41:31;7.72;;;7.07;;
25129;SDS011;13308;50.860;13.664;2023-08-24T05:43:57;8.15;;;7.40;;
25129;SDS011;13308;50.860;13.664;2023-08-24T05:46:22;7.72;;;7.13;;
25129;SDS011;13308;50.860;13.664;2023-08-24T05:48:47;8.18;;;7.38;;
25129;SDS011;13308;50.860;13.664;2023-08-24T05:51:13;9.05;;;7.53;;
25129;SDS011;13308;50.860;13.664;2023-08-24T05:53:38;8.38;;;7.57;;
25129;SDS011;13308;50.860;13.664;2023-08-24T05:56:05;7.72;;;6.80;;
25129;SDS011;13308;50.860;13.664;2023-08-24T05:58:31;7.40;;;6.80;;
25129;SDS011;13308;50.860;13.664;2023-08-24T06:00:57;7.15;;;6.55;;
25129;SDS011;13308;50.860;13.664;2023-08-24T06:03:24;7.05;;;6.53;;
25129;SDS011;13308;50.860;13.664;2023-08-24T06:05:49;8.07;;;7.13;;
25129;SDS011;13308;50.860;13.664;2023-08-24T06:08:15;7.30;;;6.75;;
25129;SDS011;13308;50.860;13.664;2023-08-24T06:10:41;7.75;;;6.97;;
25129;SDS011;13308;50.860;13.664;2023-08-24T06:13:06;6.45;;;5.85;;
25129;SDS011;13308;50.860;13.664;2023-08-24T06:15:32;7.75;;;6.18;;
25129;SDS011;13308;50.860;13.664;2023-08-24T06:17:57;7.07;;;6.47;;
25129;SDS011;13308;50.860;13.664;2023-08-24T06:20:24;8.65;;;6.18;;
25129;SDS011;13308;50.860;13.664;2023-08-24T06:22:49;6.72;;;6.13;;
25129;SDS011;13308;50.860;13.664;2023-08-24T06:25:15;8.80;;;6.13;;
25129;SDS011;13308;50.860;13.664;2023-08-24T06:27:41;5.85;;;5.35;;
25129;SDS011;13308;50.860;13.664;2023-08-24T06:30:06;7.00;;;6.30;;
25129;SDS011;13308;50.860;13.664;2023-08-24T06:32:32;6.55;;;6.05;;
25129;SDS011;13308;50.860;13.664;2023-08-24T06:34:57;6.53;;;5.93;;
25129;SDS011;13308;50.860;13.664;2023-08-24T06:37:23;6.13;;;5.63;;
25129;SDS011;13308;50.860;13.664;2023-08-24T06:39:48;7.15;;;5.47;;
25129;SDS011;13308;50.860;13.664;2023-08-24T06:42:14;6.47;;;5.97;;
25129;SDS011;13308;50.860;13.664;2023-08-24T06:44:39;10.35;;;6.00;;
25129;SDS011;13308;50.860;13.664;2023-08-24T06:47:05;8.15;;;5.88;;
25129;SDS011;13308;50.860;13.664;2023-08-24T06:49:30;5.63;;;5.13;;
25129;SDS011;13308;50.860;13.664;2023-08-24T06:51:56;5.70;;;5.22;;
25129;SDS011;13308;50.860;13.664;2023-08-24T06:54:21;6.25;;;5.63;;
25129;SDS011;13308;50.860;13.664;2023-08-24T06:56:48;9.63;;;5.28;;
25129;SDS011;13308;50.860;13.664;2023-08-24T06:59:13;5.30;;;4.55;;
25129;SDS011;13308;50.860;13.664;2023-08-24T07:01:39;7.50;;;4.28;;
25129;SDS011;13308;50.860;13.664;2023-08-24T07:04:05;7.40;;;4.25;;
25129;SDS011;13308;50.860;13.664;2023-08-24T07:06:32;5.03;;;4.55;;
25129;SDS011;13308;50.860;13.664;2023-08-24T07:08:59;4.68;;;4.28;;
25129;SDS011;13308;50.860;13.664;2023-08-24T07:11:24;4.50;;;3.90;;
25129;SDS011;13308;50.860;13.664;2023-08-24T07:13:51;4.53;;;3.78;;
25129;SDS011;13308;50.860;13.664;2023-08-24T07:16:18;4.10;;;3.80;;
25129;SDS011;13308;50.860;13.664;2023-08-24T07:18:44;4.60;;;4.00;;
25129;SDS011;13308;50.860;13.664;2023-08-24T07:21:09;3.55;;;3.33;;
25129;SDS011;13308;50.860;13.664;2023-08-24T07:23:34;4.13;;;3.40;;
25129;SDS011;13308;50.860;13.664;2023-08-24T07:26:00;4.03;;;3.60;;
25129;SDS011;13308;50.860;13.664;2023-08-24T07:28:25;3.13;;;2.92;;
25129;SDS011;13308;50.860;13.664;2023-08-24T07:30:50;3.22;;;3.03;;
25129;SDS011;13308;50.860;13.664;2023-08-24T07:33:18;3.88;;;3.28;;
25129;SDS011;13308;50.860;13.664;2023-08-24T07:35:43;4.47;;;2.80;;
25129;SDS011;13308;50.860;13.664;2023-08-24T07:38:09;3.13;;;2.83;;
25129;SDS011;13308;50.860;13.664;2023-08-24T07:40:34;3.00;;;2.72;;
25129;SDS011;13308;50.860;13.664;2023-08-24T07:42:59;2.75;;;2.55;;
25129;SDS011;13308;50.860;13.664;2023-08-24T07:45:25;2.60;;;2.40;;
25129;SDS011;13308;50.860;13.664;2023-08-24T07:47:51;3.13;;;2.63;;
25129;SDS011;13308;50.860;13.664;2023-08-24T07:50:17;3.10;;;2.80;;
25129;SDS011;13308;50.860;13.664;2023-08-24T07:52:42;3.55;;;2.60;;
25129;SDS011;13308;50.860;13.664;2023-08-24T07:55:08;2.90;;;2.70;;
25129;SDS011;13308;50.860;13.664;2023-08-24T07:57:34;2.40;;;2.20;;
25129;SDS011;13308;50.860;13.664;2023-08-24T08:00:00;3.28;;;2.97;;
25129;SDS011;13308;50.860;13.664;2023-08-24T08:02:37;5.47;;;2.72;;
25129;SDS011;13308;50.860;13.664;2023-08-24T08:05:03;3.97;;;2.78;;
25129;SDS011;13308;50.860;13.664;2023-08-24T08:07:29;2.85;;;2.63;;
25129;SDS011;13308;50.860;13.664;2023-08-24T08:09:54;4.88;;;2.65;;
25129;SDS011;13308;50.860;13.664;2023-08-24T08:12:21;2.65;;;2.45;;
25129;SDS011;13308;50.860;13.664;2023-08-24T08:14:47;4.05;;;2.70;;
25129;SDS011;13308;50.860;13.664;2023-08-24T08:17:12;3.40;;;3.10;;
25129;SDS011;13308;50.860;13.664;2023-08-24T08:19:37;2.53;;;2.28;;
25129;SDS011;13308;50.860;13.664;2023-08-24T08:22:03;3.20;;;2.92;;
25129;SDS011;13308;50.860;13.664;2023-08-24T08:24:29;2.97;;;2.78;;
25129;SDS011;13308;50.860;13.664;2023-08-24T08:26:54;3.03;;;2.83;;
25129;SDS011;13308;50.860;13.664;2023-08-24T08:29:20;2.75;;;2.55;;
25129;SDS011;13308;50.860;13.664;2023-08-24T08:31:45;3.92;;;2.72;;
25129;SDS011;13308;50.860;13.664;2023-08-24T08:34:11;3.60;;;2.75;;
25129;SDS011;13308;50.860;13.664;2023-08-24T08:36:36;4.57;;;2.95;;
25129;SDS011;13308;50.860;13.664;2023-08-24T08:39:01;3.97;;;3.28;;
25129;SDS011;13308;50.860;13.664;2023-08-24T08:41:31;4.28;;;2.97;;
25129;SDS011;13308;50.860;13.664;2023-08-24T08:44:04;7.45;;;3.80;;
25129;SDS011;13308;50.860;13.664;2023-08-24T08:46:31;3.53;;;3.22;;
25129;SDS011;13308;50.860;13.664;2023-08-24T08:48:57;3.30;;;3.00;;
25129;SDS011;13308;50.860;13.664;2023-08-24T08:51:25;3.22;;;2.88;;
25129;SDS011;13308;50.860;13.664;2023-08-24T08:53:50;3.33;;;3.05;;
25129;SDS011;13308;50.860;13.664;2023-08-24T08:56:16;3.67;;;3.22;;
25129;SDS011;13308;50.860;13.664;2023-08-24T08:58:41;3.70;;;3.38;;
25129;SDS011;13308;50.860;13.664;2023-08-24T09:01:08;5.07;;;3.50;;
25129;SDS011;13308;50.860;13.664;2023-08-24T09:03:34;3.58;;;3.28;;
25129;SDS011;13308;50.860;13.664;2023-08-24T09:06:00;3.65;;;3.35;;
25129;SDS011;13308;50.860;13.664;2023-08-24T09:08:26;6.32;;;3.65;;
25129;SDS011;13308;50.860;13.664;2023-08-24T09:10:53;3.50;;;3.20;;
25129;SDS011;13308;50.860;13.664;2023-08-24T09:13:19;4.15;;;3.80;;
25129;SDS011;13308;50.860;13.664;2023-08-24T09:15:44;3.45;;;3.25;;
25129;SDS011;13308;50.860;13.664;2023-08-24T09:18:09;5.22;;;3.75;;
25129;SDS011;13308;50.860;13.664;2023-08-24T09:20:35;4.00;;;3.70;;
25129;SDS011;13308;50.860;13.664;2023-08-24T09:23:00;9.25;;;3.45;;
25129;SDS011;13308;50.860;13.664;2023-08-24T09:25:26;3.30;;;3.08;;
25129;SDS011;13308;50.860;13.664;2023-08-24T09:28:01;3.78;;;3.47;;
25129;SDS011;13308;50.860;13.664;2023-08-24T09:30:31;3.88;;;3.58;;
25129;SDS011;13308;50.860;13.664;2023-08-24T09:33:18;7.70;;;6.97;;
25129;SDS011;13308;50.860;13.664;2023-08-24T09:35:43;4.00;;;3.70;;
25129;SDS011;13308;50.860;13.664;2023-08-24T09:38:15;4.00;;;3.70;;
25129;SDS011;13308;50.860;13.664;2023-08-24T09:40:44;3.90;;;3.58;;
25129;SDS011;13308;50.860;13.664;2023-08-24T09:43:12;4.28;;;3.97;;
25129;SDS011;13308;50.860;13.664;2023-08-24T09:45:38;10.38;;;8.90;;
25129;SDS011;13308;50.860;13.664;2023-08-24T09:48:13;4.93;;;4.53;;
25129;SDS011;13308;50.860;13.664;2023-08-24T09:50:38;4.93;;;4.53;;
25129;SDS011;13308;50.860;13.664;2023-08-24T09:53:04;4.38;;;3.97;;
25129;SDS011;13308;50.860;13.664;2023-08-24T09:55:30;13.88;;;10.10;;
25129;SDS011;13308;50.860;13.664;2023-08-24T09:58:01;4.72;;;4.40;;
25129;SDS011;13308;50.860;13.664;2023-08-24T10:00:29;5.75;;;5.32;;
25129;SDS011;13308;50.860;13.664;2023-08-24T10:02:55;4.32;;;3.92;;
25129;SDS011;13308;50.860;13.664;2023-08-24T10:05:24;4.20;;;3.90;;
25129;SDS011;13308;50.860;13.664;2023-08-24T10:07:54;4.55;;;4.15;;
25129;SDS011;13308;50.860;13.664;2023-08-24T10:10:21;4.43;;;4.13;;
25129;SDS011;13308;50.860;13.664;2023-08-24T10:12:55;4.15;;;3.85;;
25129;SDS011;13308;50.860;13.664;2023-08-24T10:15:24;6.10;;;4.68;;
25129;SDS011;13308;50.860;13.664;2023-08-24T10:17:51;4.53;;;4.22;;
25129;SDS011;13308;50.860;13.664;2023-08-24T10:20:18;4.50;;;3.92;;
25129;SDS011;13308;50.860;13.664;2023-08-24T10:22:45;5.13;;;4.72;;
25129;SDS011;13308;50.860;13.664;2023-08-24T10:25:11;4.57;;;4.28;;
25129;SDS011;13308;50.860;13.664;2023-08-24T10:27:38;5.05;;;4.55;;
25129;SDS011;13308;50.860;13.664;2023-08-24T10:30:08;7.32;;;4.72;;
25129;SDS011;13308;50.860;13.664;2023-08-24T10:32:38;7.25;;;4.78;;
25129;SDS011;13308;50.860;13.664;2023-08-24T10:35:05;5.28;;;4.78;;
25129;SDS011;13308;50.860;13.664;2023-08-24T10:37:30;5.18;;;4.68;;
25129;SDS011;13308;50.860;13.664;2023-08-24T10:39:59;7.05;;;4.68;;
25129;SDS011;13308;50.860;13.664;2023-08-24T10:42:24;5.25;;;4.80;;
25129;SDS011;13308;50.860;13.664;2023-08-24T10:44:51;5.20;;;4.55;;
25129;SDS011;13308;50.860;13.664;2023-08-24T10:49:42;4.97;;;4.57;;
25129;SDS011;13308;50.860;13.664;2023-08-24T10:52:16;5.70;;;5.20;;
25129;SDS011;13308;50.860;13.664;2023-08-24T10:54:44;4.60;;;4.20;;
25129;SDS011;13308;50.860;13.664;2023-08-24T10:57:26;4.60;;;4.20;;
25129;SDS011;13308;50.860;13.664;2023-08-24T11:02:30;4.68;;;4.28;;
25129;SDS011;13308;50.860;13.664;2023-08-24T11:05:17;7.10;;;4.20;;
25129;SDS011;13308;50.860;13.664;2023-08-24T11:07:47;4.57;;;4.25;;
25129;SDS011;13308;50.860;13.664;2023-08-24T11:10:18;5.00;;;4.60;;
25129;SDS011;13308;50.860;13.664;2023-08-24T11:15:36;5.07;;;4.68;;
25129;SDS011;13308;50.860;13.664;2023-08-24T11:18:14;5.38;;;4.45;;
25129;SDS011;13308;50.860;13.664;2023-08-24T11:20:44;4.75;;;4.32;;
25129;SDS011;13308;50.860;13.664;2023-08-24T11:23:11;4.60;;;4.22;;
25129;SDS011;13308;50.860;13.664;2023-08-24T11:25:37;6.55;;;5.00;;
25129;SDS011;13308;50.860;13.664;2023-08-24T11:28:03;5.88;;;5.30;;
25129;SDS011;13308;50.860;13.664;2023-08-24T11:30:29;5.47;;;4.97;;
25129;SDS011;13308;50.860;13.664;2023-08-24T11:32:58;5.47;;;4.97;;
25129;SDS011;13308;50.860;13.664;2023-08-24T11:35:24;5.35;;;4.95;;
25129;SDS011;13308;50.860;13.664;2023-08-24T11:37:56;5.50;;;5.00;;
25129;SDS011;13308;50.860;13.664;2023-08-24T11:40:22;5.65;;;5.15;;
25129;SDS011;13308;50.860;13.664;2023-08-24T11:42:54;6.00;;;5.38;;
25129;SDS011;13308;50.860;13.664;2023-08-24T11:45:20;5.10;;;4.70;;
25129;SDS011;13308;50.860;13.664;2023-08-24T11:47:46;6.88;;;5.10;;
25129;SDS011;13308;50.860;13.664;2023-08-24T11:50:11;6.93;;;5.60;;
25129;SDS011;13308;50.860;13.664;2023-08-24T11:52:40;5.80;;;5.40;;
25129;SDS011;13308;50.860;13.664;2023-08-24T11:55:06;5.97;;;5.38;;
25129;SDS011;13308;50.860;13.664;2023-08-24T11:57:34;5.63;;;5.15;;
25129;SDS011;13308;50.860;13.664;2023-08-24T11:59:59;6.32;;;5.72;;
25129;SDS011;13308;50.860;13.664;2023-08-24T12:02:25;8.43;;;5.28;;
25129;SDS011;13308;50.860;13.664;2023-08-24T12:04:51;5.20;;;4.75;;
25129;SDS011;13308;50.860;13.664;2023-08-24T12:07:16;7.38;;;4.90;;
25129;SDS011;13308;50.860;13.664;2023-08-24T12:09:43;5.70;;;5.30;;
25129;SDS011;13308;50.860;13.664;2023-08-24T12:12:13;5.90;;;5.50;;
25129;SDS011;13308;50.860;13.664;2023-08-24T12:14:41;5.60;;;5.20;;
25129;SDS011;13308;50.860;13.664;2023-08-24T12:17:11;5.88;;;5.28;;
25129;SDS011;13308;50.860;13.664;2023-08-24T12:19:40;6.03;;;5.53;;
25129;SDS011;13308;50.860;13.664;2023-08-24T12:22:22;6.40;;;5.85;;
25129;SDS011;13308;50.860;13.664;2023-08-24T12:24:47;6.10;;;5.45;;
25129;SDS011;13308;50.860;13.664;2023-08-24T12:27:22;11.02;;;5.78;;
25129;SDS011;13308;50.860;13.664;2023-08-24T12:29:49;7.03;;;6.05;;
25129;SDS011;13308;50.860;13.664;2023-08-24T12:32:15;6.90;;;6.25;;
25129;SDS011;13308;50.860;13.664;2023-08-24T12:34:44;8.10;;;6.85;;
25129;SDS011;13308;50.860;13.664;2023-08-24T12:37:10;7.60;;;6.82;;
25129;SDS011;13308;50.860;13.664;2023-08-24T12:39:36;6.40;;;5.82;;
25129;SDS011;13308;50.860;13.664;2023-08-24T12:42:03;6.82;;;6.20;;
25129;SDS011;13308;50.860;13.664;2023-08-24T12:44:29;7.00;;;6.28;;
25129;SDS011;13308;50.860;13.664;2023-08-24T12:46:54;6.82;;;5.90;;
25129;SDS011;13308;50.860;13.664;2023-08-24T12:49:20;7.47;;;6.75;;
25129;SDS011;13308;50.860;13.664;2023-08-24T12:51:45;8.52;;;6.25;;
25129;SDS011;13308;50.860;13.664;2023-08-24T12:54:11;6.72;;;6.10;;
25129;SDS011;13308;50.860;13.664;2023-08-24T12:56:37;6.88;;;5.85;;
25129;SDS011;13308;50.860;13.664;2023-08-24T12:59:03;6.55;;;6.00;;
25129;SDS011;13308;50.860;13.664;2023-08-24T13:01:29;6.70;;;6.07;;
25129;SDS011;13308;50.860;13.664;2023-08-24T13:03:54;6.43;;;5.88;;
25129;SDS011;13308;50.860;13.664;2023-08-24T13:06:19;9.85;;;6.47;;
25129;SDS011;13308;50.860;13.664;2023-08-24T13:08:45;9.75;;;5.68;;
25129;SDS011;13308;50.860;13.664;2023-08-24T13:11:10;7.05;;;6.28;;
25129;SDS011;13308;50.860;13.664;2023-08-24T13:13:36;5.90;;;5.40;;
25129;SDS011;13308;50.860;13.664;2023-08-24T13:16:01;6.00;;;5.50;;
25129;SDS011;13308;50.860;13.664;2023-08-24T13:18:27;6.68;;;5.75;;
25129;SDS011;13308;50.860;13.664;2023-08-24T13:20:52;6.20;;;5.60;;
25129;SDS011;13308;50.860;13.664;2023-08-24T13:23:17;5.72;;;5.22;;
25129;SDS011;13308;50.860;13.664;2023-08-24T13:25:43;5.55;;;5.10;;
25129;SDS011;13308;50.860;13.664;2023-08-24T13:28:08;5.78;;;5.30;;
25129;SDS011;13308;50.860;13.664;2023-08-24T13:30:33;20.20;;;13.00;;
25129;SDS011;13308;50.860;13.664;2023-08-24T13:32:59;7.07;;;6.40;;
25129;SDS011;13308;50.860;13.664;2023-08-24T13:35:25;7.55;;;6.95;;
25129;SDS011;13308;50.860;13.664;2023-08-24T13:37:50;5.95;;;5.35;;
25129;SDS011;13308;50.860;13.664;2023-08-24T13:40:16;5.65;;;5.22;;
25129;SDS011;13308;50.860;13.664;2023-08-24T13:42:41;5.28;;;4.85;;
25129;SDS011;13308;50.860;13.664;2023-08-24T13:45:07;10.48;;;5.50;;
25129;SDS011;13308;50.860;13.664;2023-08-24T13:47:32;4.78;;;4.38;;
25129;SDS011;13308;50.860;13.664;2023-08-24T13:49:58;4.22;;;3.72;;
25129;SDS011;13308;50.860;13.664;2023-08-24T13:52:23;4.95;;;4.55;;
25129;SDS011;13308;50.860;13.664;2023-08-24T13:54:48;5.50;;;4.40;;
25129;SDS011;13308;50.860;13.664;2023-08-24T13:57:14;6.82;;;4.63;;
25129;SDS011;13308;50.860;13.664;2023-08-24T13:59:40;4.28;;;3.97;;
25129;SDS011;13308;50.860;13.664;2023-08-24T14:02:05;4.00;;;3.70;;
25129;SDS011;13308;50.860;13.664;2023-08-24T14:04:31;4.05;;;3.75;;
25129;SDS011;13308;50.860;13.664;2023-08-24T14:06:56;4.35;;;3.90;;
25129;SDS011;13308;50.860;13.664;2023-08-24T14:09:22;4.53;;;4.18;;
25129;SDS011;13308;50.860;13.664;2023-08-24T14:11:47;4.57;;;4.15;;
25129;SDS011;13308;50.860;13.664;2023-08-24T14:14:13;4.18;;;3.33;;
25129;SDS011;13308;50.860;13.664;2023-08-24T14:16:38;4.63;;;3.75;;
25129;SDS011;13308;50.860;13.664;2023-08-24T14:19:03;3.63;;;3.42;;
25129;SDS011;13308;50.860;13.664;2023-08-24T14:21:29;4.68;;;4.28;;
25129;SDS011;13308;50.860;13.664;2023-08-24T14:23:55;7.82;;;3.53;;
25129;SDS011;13308;50.860;13.664;2023-08-24T14:26:20;4.50;;;3.97;;
25129;SDS011;13308;50.860;13.664;2023-08-24T14:28:52;4.00;;;3.70;;
25129;SDS011;13308;50.860;13.664;2023-08-24T14:31:20;4.45;;;4.05;;
25129;SDS011;13308;50.860;13.664;2023-08-24T14:33:46;3.97;;;3.67;;
25129;SDS011;13308;50.860;13.664;2023-08-24T14:36:11;3.53;;;3.30;;
25129;SDS011;13308;50.860;13.664;2023-08-24T14:38:40;4.18;;;3.25;;
25129;SDS011;13308;50.860;13.664;2023-08-24T14:41:09;3.58;;;3.28;;
25129;SDS011;13308;50.860;13.664;2023-08-24T14:43:36;3.35;;;3.08;;
25129;SDS011;13308;50.860;13.664;2023-08-24T14:46:02;3.38;;;3.17;;
25129;SDS011;13308;50.860;13.664;2023-08-24T14:48:28;3.58;;;3.28;;
25129;SDS011;13308;50.860;13.664;2023-08-24T14:50:54;3.72;;;3.42;;
25129;SDS011;13308;50.860;13.664;2023-08-24T14:53:19;3.60;;;3.33;;
25129;SDS011;13308;50.860;13.664;2023-08-24T14:55:45;4.00;;;3.70;;
25129;SDS011;13308;50.860;13.664;2023-08-24T14:58:10;3.58;;;3.28;;
25129;SDS011;13308;50.860;13.664;2023-08-24T15:00:36;4.28;;;3.78;;
25129;SDS011;13308;50.860;13.664;2023-08-24T15:03:01;4.90;;;3.90;;
25129;SDS011;13308;50.860;13.664;2023-08-24T15:05:27;3.88;;;3.58;;
25129;SDS011;13308;50.860;13.664;2023-08-24T15:07:53;4.50;;;3.40;;
25129;SDS011;13308;50.860;13.664;2023-08-24T15:10:18;3.92;;;3.38;;
25129;SDS011;13308;50.860;13.664;2023-08-24T15:12:45;3.60;;;3.40;;
25129;SDS011;13308;50.860;13.664;2023-08-24T15:15:11;3.80;;;3.58;;
25129;SDS011;13308;50.860;13.664;2023-08-24T15:17:38;3.75;;;3.50;;
25129;SDS011;13308;50.860;13.664;2023-08-24T15:20:04;3.58;;;3.28;;
25129;SDS011;13308;50.860;13.664;2023-08-24T15:22:30;3.80;;;3.60;;
25129;SDS011;13308;50.860;13.664;2023-08-24T15:24:57;4.05;;;3.38;;
25129;SDS011;13308;50.860;13.664;2023-08-24T15:27:22;3.88;;;3.47;;
25129;SDS011;13308;50.860;13.664;2023-08-24T15:29:49;3.75;;;3.45;;
25129;SDS011;13308;50.860;13.664;2023-08-24T15:32:16;3.40;;;3.10;;
25129;SDS011;13308;50.860;13.664;2023-08-24T15:34:42;4.18;;;3.40;;
25129;SDS011;13308;50.860;13.664;2023-08-24T15:37:07;3.55;;;3.28;;
25129;SDS011;13308;50.860;13.664;2023-08-24T15:39:36;3.47;;;3.17;;
25129;SDS011;13308;50.860;13.664;2023-08-24T15:42:03;3.88;;;3.60;;
25129;SDS011;13308;50.860;13.664;2023-08-24T15:44:29;3.85;;;3.55;;
25129;SDS011;13308;50.860;13.664;2023-08-24T15:46:55;4.13;;;3.42;;
25129;SDS011;13308;50.860;13.664;2023-08-24T15:49:21;5.93;;;4.15;;
25129;SDS011;13308;50.860;13.664;2023-08-24T15:51:48;3.70;;;3.40;;
25129;SDS011;13308;50.860;13.664;2023-08-24T15:54:14;4.18;;;3.78;;
25129;SDS011;13308;50.860;13.664;2023-08-24T15:56:39;4.82;;;4.00;;
25129;SDS011;13308;50.860;13.664;2023-08-24T15:59:07;3.53;;;3.22;;
25129;SDS011;13308;50.860;13.664;2023-08-24T16:01:32;4.40;;;4.00;;
25129;SDS011;13308;50.860;13.664;2023-08-24T16:03:58;3.85;;;3.47;;
25129;SDS011;13308;50.860;13.664;2023-08-24T16:06:23;6.40;;;4.15;;
25129;SDS011;13308;50.860;13.664;2023-08-24T16:08:48;4.70;;;4.30;;
25129;SDS011;13308;50.860;13.664;2023-08-24T16:11:14;4.28;;;3.55;;
25129;SDS011;13308;50.860;13.664;2023-08-24T16:13:39;4.93;;;3.83;;
25129;SDS011;13308;50.860;13.664;2023-08-24T16:16:04;3.85;;;3.55;;
25129;SDS011;13308;50.860;13.664;2023-08-24T16:18:30;4.43;;;4.13;;
25129;SDS011;13308;50.860;13.664;2023-08-24T16:20:55;4.78;;;4.22;;
25129;SDS011;13308;50.860;13.664;2023-08-24T16:23:20;7.28;;;4.03;;
25129;SDS011;13308;50.860;13.664;2023-08-24T16:25:46;5.00;;;4.35;;
25129;SDS011;13308;50.860;13.664;2023-08-24T16:28:12;4.97;;;4.25;;
25129;SDS011;13308;50.860;13.664;2023-08-24T16:30:38;4.50;;;4.10;;
25129;SDS011;13308;50.860;13.664;2023-08-24T16:33:03;5.47;;;4.40;;
25129;SDS011;13308;50.860;13.664;2023-08-24T16:35:29;4.75;;;4.38;;
25129;SDS011;13308;50.860;13.664;2023-08-24T16:37:54;5.43;;;4.35;;
25129;SDS011;13308;50.860;13.664;2023-08-24T16:40:20;6.63;;;4.13;;
25129;SDS011;13308;50.860;13.664;2023-08-24T16:42:45;5.18;;;4.68;;
25129;SDS011;13308;50.860;13.664;2023-08-24T16:45:11;5.82;;;4.43;;
25129;SDS011;13308;50.860;13.664;2023-08-24T16:47:36;5.25;;;4.82;;
25129;SDS011;13308;50.860;13.664;2023-08-24T16:50:02;4.47;;;4.10;;
25129;SDS011;13308;50.860;13.664;2023-08-24T16:52:28;5.18;;;4.78;;
25129;SDS011;13308;50.860;13.664;2023-08-24T16:54:53;6.22;;;4.72;;
25129;SDS011;13308;50.860;13.664;2023-08-24T16:57:19;5.78;;;5.28;;
25129;SDS011;13308;50.860;13.664;2023-08-24T16:59:44;6.80;;;5.05;;
25129;SDS011;13308;50.860;13.664;2023-08-24T17:02:10;5.65;;;4.85;;
25129;SDS011;13308;50.860;13.664;2023-08-24T17:04:35;5.55;;;5.05;;
25129;SDS011;13308;50.860;13.664;2023-08-24T17:07:01;5.18;;;4.78;;
25129;SDS011;13308;50.860;13.664;2023-08-24T17:09:26;5.00;;;4.65;;
25129;SDS011;13308;50.860;13.664;2023-08-24T17:11:52;6.50;;;4.75;;
25129;SDS011;13308;50.860;13.664;2023-08-24T17:14:17;6.35;;;5.10;;
25129;SDS011;13308;50.860;13.664;2023-08-24T17:16:42;5.25;;;4.75;;
25129;SDS011;13308;50.860;13.664;2023-08-24T17:19:08;5.93;;;5.40;;
25129;SDS011;13308;50.860;13.664;2023-08-24T17:21:33;5.10;;;4.68;;
25129;SDS011;13308;50.860;13.664;2023-08-24T17:23:59;6.93;;;5.90;;
25129;SDS011;13308;50.860;13.664;2023-08-24T17:26:24;9.88;;;5.35;;
25129;SDS011;13308;50.860;13.664;2023-08-24T17:28:50;5.55;;;5.05;;
25129;SDS011;13308;50.860;13.664;2023-08-24T17:31:15;5.82;;;5.22;;
25129;SDS011;13308;50.860;13.664;2023-08-24T17:33:41;6.00;;;5.40;;
25129;SDS011;13308;50.860;13.664;2023-08-24T17:36:06;6.45;;;5.88;;
25129;SDS011;13308;50.860;13.664;2023-08-24T17:38:32;5.90;;;5.40;;
25129;SDS011;13308;50.860;13.664;2023-08-24T17:41:03;5.93;;;5.43;;
25129;SDS011;13308;50.860;13.664;2023-08-24T17:43:30;9.13;;;5.70;;
25129;SDS011;13308;50.860;13.664;2023-08-24T17:45:57;5.50;;;5.10;;
25129;SDS011;13308;50.860;13.664;2023-08-24T17:48:23;6.10;;;5.60;;
25129;SDS011;13308;50.860;13.664;2023-08-24T17:50:52;7.82;;;7.05;;
25129;SDS011;13308;50.860;13.664;2023-08-24T17:53:19;8.23;;;7.43;;
25129;SDS011;13308;50.860;13.664;2023-08-24T17:55:50;9.55;;;7.07;;
25129;SDS011;13308;50.860;13.664;2023-08-24T17:58:16;7.00;;;6.40;;
25129;SDS011;13308;50.860;13.664;2023-08-24T18:00:42;7.00;;;6.40;;
25129;SDS011;13308;50.860;13.664;2023-08-24T18:03:08;8.00;;;6.68;;
25129;SDS011;13308;50.860;13.664;2023-08-24T18:05:33;7.35;;;6.60;;
25129;SDS011;13308;50.860;13.664;2023-08-24T18:07:59;7.53;;;6.60;;
25129;SDS011;13308;50.860;13.664;2023-08-24T18:10:24;7.47;;;6.75;;
25129;SDS011;13308;50.860;13.664;2023-08-24T18:12:49;7.38;;;6.68;;
25129;SDS011;13308;50.860;13.664;2023-08-24T18:15:14;11.07;;;6.88;;
25129;SDS011;13308;50.860;13.664;2023-08-24T18:17:41;6.82;;;6.22;;
25129;SDS011;13308;50.860;13.664;2023-08-24T18:20:08;7.05;;;6.50;;
25129;SDS011;13308;50.860;13.664;2023-08-24T18:22:34;9.30;;;6.15;;
